Autodesk Current Ratio 2006-2020 | ADSK

Current and historical current ratio for Autodesk (ADSK) from 2006 to 2020. Current ratio can be defined as a liquidity ratio that measures a company's ability to pay short-term obligations. Autodesk current ratio for the three months ending July 31, 2020 was 0.84.
Autodesk Current Ratio Historical Data
Date Current Assets Current Liabilities Current Ratio
2020-07-31 $2.20B $2.62B 0.84
2020-04-30 $2.02B $2.58B 0.79
2020-01-31 $2.66B $3.22B 0.83
2019-10-31 $1.71B $2.84B 0.60
2019-07-31 $1.52B $2.71B 0.56
2019-04-30 $1.42B $2.22B 0.64
2019-01-31 $1.62B $2.30B 0.70
2018-10-31 $1.59B $1.99B 0.80
2018-07-31 $1.60B $1.92B 0.84
2018-04-30 $1.70B $1.85B 0.92
2018-01-31 $1.88B $2.12B 0.88
2017-10-31 $1.87B $1.75B 1.07
2017-07-31 $2.08B $1.70B 1.22
2017-04-30 $2.14B $2.05B 1.04
2017-01-31 $2.46B $2.19B 1.13
2016-10-31 $2.33B $1.60B 1.46
2016-07-31 $2.49B $1.56B 1.59
2016-04-30 $2.63B $1.48B 1.78
2016-01-31 $2.99B $1.59B 1.88
2015-10-31 $2.75B $1.31B 2.10
2015-07-31 $2.90B $1.31B 2.21
2015-04-30 $2.34B $1.27B 1.84
2015-01-31 $2.67B $1.40B 1.91
2014-10-31 $2.46B $1.19B 2.06
2014-07-31 $2.45B $1.16B 2.12
2014-04-30 $2.59B $1.12B 2.32
2014-01-31 $2.84B $1.07B 2.65
2013-10-31 $2.52B $0.95B 2.66
2013-07-31 $2.44B $0.96B 2.55
2013-04-30 $2.51B $0.98B 2.56
2013-01-31 $2.55B $1.04B 2.45
2012-10-31 $1.73B $0.99B 1.75
2012-07-31 $1.90B $0.90B 2.11
2012-04-30 $1.91B $0.88B 2.18
2012-01-31 $1.90B $0.95B 1.99
2011-10-31 $1.70B $0.81B 2.09
2011-07-31 $1.78B $0.83B 2.15
2011-04-30 $1.73B $0.82B 2.11
2011-01-31 $1.71B $0.87B 1.97
2010-10-31 $1.47B $0.74B 2.00
2010-07-31 $1.42B $0.72B 1.96
2010-04-30 $1.39B $0.71B 1.96
2010-01-31 $1.38B $0.70B 1.96
2009-10-31 $1.29B $0.63B 2.05
2009-07-31 $1.27B $0.66B 1.92
2009-04-30 $1.30B $0.68B 1.91
2009-01-31 $1.39B $0.80B 1.74
2008-10-31 $1.31B $0.66B 1.97
2008-07-31 $1.40B $0.87B 1.61
2008-04-30 $1.42B $0.74B 1.94
2008-01-31 $1.48B $0.73B 2.03
2007-10-31 $1.32B $0.61B 2.17
2007-07-31 $1.27B $0.60B 2.12
2007-04-30 $1.39B $0.59B 2.37
2007-01-31 $1.19B $0.57B 2.07
2006-10-31 $0.97B $0.51B 1.89
2006-07-31 $0.84B $0.50B 1.68
2006-04-30 $0.79B $0.52B 1.51
2006-01-31 $0.75B $0.49B 1.53
2005-10-31 $0.86B $0.46B 1.86
2005-07-31 $0.81B $0.44B 1.85
2005-04-30 $0.80B $0.44B 1.82
2005-01-31 $0.78B $0.47B 1.67
Sector Industry Market Cap Revenue
Computer and Technology Computer Software $57.006B $3.274B
Autodesk, Inc., is a leader in 3D design, engineering and entertainment software. Since its introduction of AutoCAD software in 1982, Autodesk continues to develop the broadest portfolio of 3D software for global markets. Customers across the manufacturing, architecture, building, construction, and media and entertainment industries-including the last 19 Academy Award winners for Best Visual Effects-use Autodesk software to design, visualize, and simulate their ideas before they're ever built or created. From blockbuster visual effects and buildings that create their own energy, to electric cars and the batteries that power them, the work of our 3D software customers is everywhere you look. Through their apps for iPhone, iPad, iPod, and Android, they're also making design technology accessible to professional designers and amateur designers, homeowners, students, and casual creators - anyone who wants to create and share their ideas with the world.
Stock Name Country Market Cap PE Ratio
Microsoft (MSFT) United States $1000.000B 38.20
Adobe (ADBE) United States $241.212B 62.54
Salesforce, Inc (CRM) United States $235.280B 172.37
SAP SE (SAP) Germany $185.151B 33.58
Oracle (ORCL) United States $181.526B 16.70
Intuit (INTU) United States $89.316B 51.30
VMware (VMW) United States $64.116B 32.68
Dassault Systemes SA (DASTY) France $48.345B 53.39
Synopsys (SNPS) United States $34.371B 56.06
Cadence Design Systems (CDNS) United States $32.254B 31.87
ANSYS (ANSS) United States $30.002B 71.52
Citrix Systems (CTXS) United States $17.080B 28.74
SS&C Technologies Holdings (SSNC) United States $16.622B 16.72
Open Text (OTEX) Canada $11.384B 26.99
Pegasystems (PEGA) United States $10.513B 0.00
PTC (PTC) United States $10.174B 47.62
Nuance Communications (NUAN) United States $9.864B 58.23
Aspen Technology (AZPN) United States $8.994B 39.60
Trend Micro (TMICY) Japan $8.185B 29.86
Manhattan Associates (MANH) United States $6.476B 80.28
Konami (KNMCY) Japan $5.731B 37.17
Descartes Systems Group (DSGX) Canada $4.709B 113.78
ACI Worldwide (ACIW) United States $3.670B 38.93
Verint Systems (VRNT) United States $3.463B 21.01
Blackbaud (BLKB) United States $2.878B 43.01
Cornerstone OnDemand (CSOD) United States $2.451B 27.72
CommVault Systems (CVLT) United States $2.012B 78.86
Bottomline Technologies (EPAY) United States $1.918B 130.06
Progress Software (PRGS) United States $1.796B 15.68
MicroStrategy (MSTR) United States $1.595B 64.84
PROS Holdings (PRO) United States $1.510B 0.00
Sapiens (SPNS) Israel $1.474B 34.18
Simulations Plus (SLP) United States $1.288B 133.85
Magic Software Enterprises (MGIC) Israel $0.689B 21.33
QAD (QADB) United States $0.657B 1058.33
American Software (AMSWA) United States $0.498B 54.75
Avid Technology (AVID) United States $0.388B 31.50
OptimizeRx (OPRX) United States $0.322B 0.00
Canaan (CAN) China $0.296B 0.00
Icad Inc (ICAD) United States $0.215B 0.00
Smith Micro Software (SMSI) United States $0.162B 13.52
ServiceSource (SREV) United States $0.140B 0.00
Park City (PCYG) United States $0.098B 84.17
Neonode (NEON) Sweden $0.084B 0.00
NetSol Technologies (NTWK) United States $0.033B 40.71
GSE Systems (GVP) United States $0.020B 0.00
CounterPath (CPAH) Canada $0.019B 0.00
BSQUARE (BSQR) United States $0.017B 0.00